sensor_id;sensor_type;location;lat;lon;timestamp;P1;durP1;ratioP1;P2;durP2;ratioP2
39728;SDS011;25402;42.004;23.088;2022-10-10T00:00:57;31.33;;;15.50;;
39728;SDS011;25402;42.004;23.088;2022-10-10T00:03:26;26.20;;;15.68;;
39728;SDS011;25402;42.004;23.088;2022-10-10T00:05:53;25.98;;;14.70;;
39728;SDS011;25402;42.004;23.088;2022-10-10T00:08:20;22.23;;;14.15;;
39728;SDS011;25402;42.004;23.088;2022-10-10T00:10:47;24.45;;;14.57;;
39728;SDS011;25402;42.004;23.088;2022-10-10T00:13:14;20.67;;;13.77;;
39728;SDS011;25402;42.004;23.088;2022-10-10T00:15:41;25.52;;;14.75;;
39728;SDS011;25402;42.004;23.088;2022-10-10T00:18:09;23.70;;;13.95;;
39728;SDS011;25402;42.004;23.088;2022-10-10T00:20:37;20.48;;;13.50;;
39728;SDS011;25402;42.004;23.088;2022-10-10T00:23:04;23.60;;;13.07;;
39728;SDS011;25402;42.004;23.088;2022-10-10T00:25:32;26.70;;;13.10;;
39728;SDS011;25402;42.004;23.088;2022-10-10T00:27:59;18.83;;;13.25;;
39728;SDS011;25402;42.004;23.088;2022-10-10T00:30:27;20.13;;;11.55;;
39728;SDS011;25402;42.004;23.088;2022-10-10T00:32:54;22.20;;;13.70;;
39728;SDS011;25402;42.004;23.088;2022-10-10T00:35:24;21.60;;;13.30;;
39728;SDS011;25402;42.004;23.088;2022-10-10T00:37:52;25.55;;;14.00;;
39728;SDS011;25402;42.004;23.088;2022-10-10T00:40:20;22.52;;;15.82;;
39728;SDS011;25402;42.004;23.088;2022-10-10T00:42:47;25.63;;;16.80;;
39728;SDS011;25402;42.004;23.088;2022-10-10T00:48:04;33.22;;;19.15;;
39728;SDS011;25402;42.004;23.088;2022-10-10T00:50:36;30.63;;;19.23;;
39728;SDS011;25402;42.004;23.088;2022-10-10T00:53:08;30.45;;;18.73;;
39728;SDS011;25402;42.004;23.088;2022-10-10T00:55:37;30.17;;;18.50;;
39728;SDS011;25402;42.004;23.088;2022-10-10T00:58:04;27.33;;;18.85;;
39728;SDS011;25402;42.004;23.088;2022-10-10T01:00:33;31.13;;;18.13;;
39728;SDS011;25402;42.004;23.088;2022-10-10T01:03:00;29.92;;;18.25;;
39728;SDS011;25402;42.004;23.088;2022-10-10T01:05:28;25.25;;;17.95;;
39728;SDS011;25402;42.004;23.088;2022-10-10T01:07:55;29.85;;;18.10;;
39728;SDS011;25402;42.004;23.088;2022-10-10T01:10:24;29.65;;;18.80;;
39728;SDS011;25402;42.004;23.088;2022-10-10T01:12:54;26.75;;;17.95;;
39728;SDS011;25402;42.004;23.088;2022-10-10T01:15:30;30.90;;;18.30;;
39728;SDS011;25402;42.004;23.088;2022-10-10T01:18:08;26.25;;;18.45;;
39728;SDS011;25402;42.004;23.088;2022-10-10T01:20:49;30.15;;;18.75;;
39728;SDS011;25402;42.004;23.088;2022-10-10T01:29:33;28.08;;;17.98;;
39728;SDS011;25402;42.004;23.088;2022-10-10T01:32:06;27.27;;;18.63;;
39728;SDS011;25402;42.004;23.088;2022-10-10T01:34:38;34.33;;;19.17;;
39728;SDS011;25402;42.004;23.088;2022-10-10T01:37:13;29.08;;;18.42;;
39728;SDS011;25402;42.004;23.088;2022-10-10T01:39:44;26.73;;;18.45;;
39728;SDS011;25402;42.004;23.088;2022-10-10T01:42:19;32.65;;;19.30;;
39728;SDS011;25402;42.004;23.088;2022-10-10T01:44:51;32.75;;;18.75;;
39728;SDS011;25402;42.004;23.088;2022-10-10T01:47:18;29.05;;;18.67;;
39728;SDS011;25402;42.004;23.088;2022-10-10T01:49:47;28.38;;;17.80;;
39728;SDS011;25402;42.004;23.088;2022-10-10T01:52:19;27.65;;;18.48;;
39728;SDS011;25402;42.004;23.088;2022-10-10T01:54:58;25.08;;;17.27;;
39728;SDS011;25402;42.004;23.088;2022-10-10T01:57:38;27.80;;;17.75;;
39728;SDS011;25402;42.004;23.088;2022-10-10T02:00:15;33.33;;;17.52;;
39728;SDS011;25402;42.004;23.088;2022-10-10T02:02:46;32.63;;;17.42;;
39728;SDS011;25402;42.004;23.088;2022-10-10T02:05:21;28.20;;;18.13;;
39728;SDS011;25402;42.004;23.088;2022-10-10T02:07:55;28.67;;;18.33;;
39728;SDS011;25402;42.004;23.088;2022-10-10T02:10:26;27.40;;;18.35;;
39728;SDS011;25402;42.004;23.088;2022-10-10T02:12:57;31.23;;;16.92;;
39728;SDS011;25402;42.004;23.088;2022-10-10T02:15:28;27.63;;;17.25;;
39728;SDS011;25402;42.004;23.088;2022-10-10T02:17:59;26.92;;;17.88;;
39728;SDS011;25402;42.004;23.088;2022-10-10T02:20:28;25.88;;;18.20;;
39728;SDS011;25402;42.004;23.088;2022-10-10T02:22:56;31.35;;;17.88;;
39728;SDS011;25402;42.004;23.088;2022-10-10T02:25:26;27.67;;;17.73;;
39728;SDS011;25402;42.004;23.088;2022-10-10T02:27:58;29.70;;;17.13;;
39728;SDS011;25402;42.004;23.088;2022-10-10T02:30:34;26.92;;;17.75;;
39728;SDS011;25402;42.004;23.088;2022-10-10T02:33:04;27.33;;;17.58;;
39728;SDS011;25402;42.004;23.088;2022-10-10T02:35:34;38.55;;;18.98;;
39728;SDS011;25402;42.004;23.088;2022-10-10T02:38:06;37.20;;;17.73;;
39728;SDS011;25402;42.004;23.088;2022-10-10T02:40:37;30.30;;;17.48;;
39728;SDS011;25402;42.004;23.088;2022-10-10T02:43:07;38.20;;;18.55;;
39728;SDS011;25402;42.004;23.088;2022-10-10T02:45:38;32.78;;;17.70;;
39728;SDS011;25402;42.004;23.088;2022-10-10T02:48:07;51.30;;;18.85;;
39728;SDS011;25402;42.004;23.088;2022-10-10T02:50:34;82.60;;;31.05;;
39728;SDS011;25402;42.004;23.088;2022-10-10T02:53:02;96.28;;;29.08;;
39728;SDS011;25402;42.004;23.088;2022-10-10T02:55:29;115.20;;;32.45;;
39728;SDS011;25402;42.004;23.088;2022-10-10T02:57:56;105.22;;;40.47;;
39728;SDS011;25402;42.004;23.088;2022-10-10T03:00:23;105.57;;;35.28;;
39728;SDS011;25402;42.004;23.088;2022-10-10T03:02:52;62.58;;;25.35;;
39728;SDS011;25402;42.004;23.088;2022-10-10T03:05:19;45.08;;;21.77;;
39728;SDS011;25402;42.004;23.088;2022-10-10T03:07:46;48.22;;;18.80;;
39728;SDS011;25402;42.004;23.088;2022-10-10T03:10:13;33.38;;;18.85;;
39728;SDS011;25402;42.004;23.088;2022-10-10T03:12:39;32.00;;;17.88;;
39728;SDS011;25402;42.004;23.088;2022-10-10T03:15:07;31.38;;;18.20;;
39728;SDS011;25402;42.004;23.088;2022-10-10T03:17:34;39.97;;;20.20;;
39728;SDS011;25402;42.004;23.088;2022-10-10T03:20:03;35.03;;;19.75;;
39728;SDS011;25402;42.004;23.088;2022-10-10T03:22:30;29.00;;;20.13;;
39728;SDS011;25402;42.004;23.088;2022-10-10T03:24:58;29.80;;;20.55;;
39728;SDS011;25402;42.004;23.088;2022-10-10T03:27:25;11.15;;;7.88;;
39728;SDS011;25402;42.004;23.088;2022-10-10T03:29:52;20.70;;;8.32;;
39728;SDS011;25402;42.004;23.088;2022-10-10T03:32:19;16.50;;;8.90;;
39728;SDS011;25402;42.004;23.088;2022-10-10T03:34:46;22.40;;;8.73;;
39728;SDS011;25402;42.004;23.088;2022-10-10T03:37:14;18.73;;;9.52;;
39728;SDS011;25402;42.004;23.088;2022-10-10T03:39:41;23.80;;;12.38;;
39728;SDS011;25402;42.004;23.088;2022-10-10T03:42:08;27.33;;;11.30;;
39728;SDS011;25402;42.004;23.088;2022-10-10T03:44:35;26.30;;;11.05;;
39728;SDS011;25402;42.004;23.088;2022-10-10T03:47:02;19.92;;;11.02;;
39728;SDS011;25402;42.004;23.088;2022-10-10T03:49:30;30.70;;;11.88;;
39728;SDS011;25402;42.004;23.088;2022-10-10T03:51:57;19.23;;;11.80;;
39728;SDS011;25402;42.004;23.088;2022-10-10T03:54:26;29.10;;;11.98;;
39728;SDS011;25402;42.004;23.088;2022-10-10T03:56:53;25.98;;;12.40;;
39728;SDS011;25402;42.004;23.088;2022-10-10T03:59:20;22.08;;;12.48;;
39728;SDS011;25402;42.004;23.088;2022-10-10T04:01:47;27.73;;;11.88;;
39728;SDS011;25402;42.004;23.088;2022-10-10T04:04:14;25.60;;;13.23;;
39728;SDS011;25402;42.004;23.088;2022-10-10T04:06:41;23.23;;;13.52;;
39728;SDS011;25402;42.004;23.088;2022-10-10T04:09:08;25.60;;;13.27;;
39728;SDS011;25402;42.004;23.088;2022-10-10T04:11:36;22.70;;;14.52;;
39728;SDS011;25402;42.004;23.088;2022-10-10T04:14:05;23.35;;;13.82;;
39728;SDS011;25402;42.004;23.088;2022-10-10T04:16:32;26.70;;;15.10;;
39728;SDS011;25402;42.004;23.088;2022-10-10T04:18:59;25.45;;;14.80;;
39728;SDS011;25402;42.004;23.088;2022-10-10T04:21:27;29.45;;;14.20;;
39728;SDS011;25402;42.004;23.088;2022-10-10T04:23:54;28.98;;;13.93;;
39728;SDS011;25402;42.004;23.088;2022-10-10T04:26:21;26.23;;;14.82;;
39728;SDS011;25402;42.004;23.088;2022-10-10T04:28:50;29.67;;;14.77;;
39728;SDS011;25402;42.004;23.088;2022-10-10T04:31:17;20.02;;;13.98;;
39728;SDS011;25402;42.004;23.088;2022-10-10T04:33:44;20.27;;;12.77;;
39728;SDS011;25402;42.004;23.088;2022-10-10T04:36:11;29.55;;;16.42;;
39728;SDS011;25402;42.004;23.088;2022-10-10T04:38:44;60.97;;;17.15;;
39728;SDS011;25402;42.004;23.088;2022-10-10T04:41:10;40.20;;;20.88;;
39728;SDS011;25402;42.004;23.088;2022-10-10T04:43:38;35.83;;;19.02;;
39728;SDS011;25402;42.004;23.088;2022-10-10T04:46:06;40.95;;;21.48;;
39728;SDS011;25402;42.004;23.088;2022-10-10T04:48:33;46.30;;;18.83;;
39728;SDS011;25402;42.004;23.088;2022-10-10T04:51:01;34.78;;;19.92;;
39728;SDS011;25402;42.004;23.088;2022-10-10T04:53:28;50.63;;;22.30;;
39728;SDS011;25402;42.004;23.088;2022-10-10T04:55:55;54.22;;;19.67;;
39728;SDS011;25402;42.004;23.088;2022-10-10T04:58:22;59.63;;;23.98;;
39728;SDS011;25402;42.004;23.088;2022-10-10T05:00:50;57.38;;;21.33;;
39728;SDS011;25402;42.004;23.088;2022-10-10T05:03:19;35.95;;;16.65;;
39728;SDS011;25402;42.004;23.088;2022-10-10T05:05:48;33.67;;;15.00;;
39728;SDS011;25402;42.004;23.088;2022-10-10T05:08:16;114.65;;;17.35;;
39728;SDS011;25402;42.004;23.088;2022-10-10T05:10:44;33.35;;;14.68;;
39728;SDS011;25402;42.004;23.088;2022-10-10T05:13:12;28.73;;;15.48;;
39728;SDS011;25402;42.004;23.088;2022-10-10T05:15:40;37.33;;;15.73;;
39728;SDS011;25402;42.004;23.088;2022-10-10T05:18:09;26.88;;;14.63;;
39728;SDS011;25402;42.004;23.088;2022-10-10T05:20:38;39.05;;;19.88;;
39728;SDS011;25402;42.004;23.088;2022-10-10T05:23:05;29.48;;;17.95;;
39728;SDS011;25402;42.004;23.088;2022-10-10T05:25:32;34.83;;;17.13;;
39728;SDS011;25402;42.004;23.088;2022-10-10T05:27:59;34.38;;;16.75;;
39728;SDS011;25402;42.004;23.088;2022-10-10T05:30:26;31.42;;;15.35;;
39728;SDS011;25402;42.004;23.088;2022-10-10T05:32:53;30.30;;;15.00;;
39728;SDS011;25402;42.004;23.088;2022-10-10T05:35:20;26.83;;;15.13;;
39728;SDS011;25402;42.004;23.088;2022-10-10T05:37:49;29.77;;;16.40;;
39728;SDS011;25402;42.004;23.088;2022-10-10T05:40:16;27.95;;;16.17;;
39728;SDS011;25402;42.004;23.088;2022-10-10T05:42:43;28.92;;;16.00;;
39728;SDS011;25402;42.004;23.088;2022-10-10T05:45:10;36.55;;;16.15;;
39728;SDS011;25402;42.004;23.088;2022-10-10T05:47:37;27.77;;;15.80;;
39728;SDS011;25402;42.004;23.088;2022-10-10T05:50:06;44.92;;;16.48;;
39728;SDS011;25402;42.004;23.088;2022-10-10T05:52:43;46.25;;;16.77;;
39728;SDS011;25402;42.004;23.088;2022-10-10T05:55:12;30.30;;;15.15;;
39728;SDS011;25402;42.004;23.088;2022-10-10T05:57:40;55.63;;;15.65;;
39728;SDS011;25402;42.004;23.088;2022-10-10T06:00:07;81.38;;;17.42;;
39728;SDS011;25402;42.004;23.088;2022-10-10T06:02:37;72.55;;;17.55;;
39728;SDS011;25402;42.004;23.088;2022-10-10T06:05:05;39.40;;;16.52;;
39728;SDS011;25402;42.004;23.088;2022-10-10T06:07:36;47.53;;;16.23;;
39728;SDS011;25402;42.004;23.088;2022-10-10T06:10:03;52.42;;;17.77;;
39728;SDS011;25402;42.004;23.088;2022-10-10T06:12:33;59.78;;;16.90;;
39728;SDS011;25402;42.004;23.088;2022-10-10T06:15:00;72.57;;;19.70;;
39728;SDS011;25402;42.004;23.088;2022-10-10T06:17:27;49.67;;;17.65;;
39728;SDS011;25402;42.004;23.088;2022-10-10T06:19:54;107.03;;;19.33;;
39728;SDS011;25402;42.004;23.088;2022-10-10T06:22:21;57.40;;;17.65;;
39728;SDS011;25402;42.004;23.088;2022-10-10T06:24:48;62.70;;;18.10;;
39728;SDS011;25402;42.004;23.088;2022-10-10T06:27:16;58.78;;;18.02;;
39728;SDS011;25402;42.004;23.088;2022-10-10T06:29:44;37.53;;;16.08;;
39728;SDS011;25402;42.004;23.088;2022-10-10T06:32:11;26.13;;;15.10;;
39728;SDS011;25402;42.004;23.088;2022-10-10T06:34:38;27.92;;;14.60;;
39728;SDS011;25402;42.004;23.088;2022-10-10T06:37:06;28.02;;;14.50;;
39728;SDS011;25402;42.004;23.088;2022-10-10T06:39:33;26.13;;;14.65;;
39728;SDS011;25402;42.004;23.088;2022-10-10T06:42:00;24.08;;;14.75;;
39728;SDS011;25402;42.004;23.088;2022-10-10T06:44:28;22.35;;;15.02;;
39728;SDS011;25402;42.004;23.088;2022-10-10T06:46:56;23.38;;;15.43;;
39728;SDS011;25402;42.004;23.088;2022-10-10T06:49:24;21.05;;;14.10;;
39728;SDS011;25402;42.004;23.088;2022-10-10T06:51:51;24.42;;;14.48;;
39728;SDS011;25402;42.004;23.088;2022-10-10T06:54:18;20.98;;;14.65;;
39728;SDS011;25402;42.004;23.088;2022-10-10T06:56:45;23.30;;;15.05;;
39728;SDS011;25402;42.004;23.088;2022-10-10T06:59:12;18.38;;;13.25;;
39728;SDS011;25402;42.004;23.088;2022-10-10T07:01:39;24.70;;;15.02;;
39728;SDS011;25402;42.004;23.088;2022-10-10T07:04:11;21.83;;;13.68;;
39728;SDS011;25402;42.004;23.088;2022-10-10T07:06:39;26.00;;;16.13;;
39728;SDS011;25402;42.004;23.088;2022-10-10T07:09:05;24.42;;;16.15;;
39728;SDS011;25402;42.004;23.088;2022-10-10T07:11:33;29.35;;;16.30;;
39728;SDS011;25402;42.004;23.088;2022-10-10T07:14:00;24.88;;;16.48;;
39728;SDS011;25402;42.004;23.088;2022-10-10T07:16:27;34.97;;;17.20;;
39728;SDS011;25402;42.004;23.088;2022-10-10T07:21:31;32.25;;;16.05;;
39728;SDS011;25402;42.004;23.088;2022-10-10T07:23:58;30.48;;;15.80;;
39728;SDS011;25402;42.004;23.088;2022-10-10T07:26:25;111.82;;;18.00;;
39728;SDS011;25402;42.004;23.088;2022-10-10T07:28:55;29.23;;;15.02;;
39728;SDS011;25402;42.004;23.088;2022-10-10T07:31:24;26.75;;;15.25;;
39728;SDS011;25402;42.004;23.088;2022-10-10T07:33:51;24.63;;;14.88;;
39728;SDS011;25402;42.004;23.088;2022-10-10T07:36:20;28.55;;;14.70;;
39728;SDS011;25402;42.004;23.088;2022-10-10T07:38:49;24.27;;;14.00;;
39728;SDS011;25402;42.004;23.088;2022-10-10T07:41:19;29.38;;;14.85;;
39728;SDS011;25402;42.004;23.088;2022-10-10T07:43:52;21.88;;;14.15;;
39728;SDS011;25402;42.004;23.088;2022-10-10T07:46:20;27.50;;;14.60;;
39728;SDS011;25402;42.004;23.088;2022-10-10T07:48:48;26.50;;;15.52;;
39728;SDS011;25402;42.004;23.088;2022-10-10T07:51:15;34.35;;;16.48;;
39728;SDS011;25402;42.004;23.088;2022-10-10T07:53:43;28.40;;;16.67;;
39728;SDS011;25402;42.004;23.088;2022-10-10T07:56:12;25.73;;;15.85;;
39728;SDS011;25402;42.004;23.088;2022-10-10T07:58:39;33.47;;;16.48;;
39728;SDS011;25402;42.004;23.088;2022-10-10T08:01:09;37.85;;;14.95;;
39728;SDS011;25402;42.004;23.088;2022-10-10T08:03:38;47.35;;;15.18;;
39728;SDS011;25402;42.004;23.088;2022-10-10T08:06:06;37.72;;;14.95;;
39728;SDS011;25402;42.004;23.088;2022-10-10T08:08:35;31.45;;;15.65;;
39728;SDS011;25402;42.004;23.088;2022-10-10T08:11:04;21.80;;;13.25;;
39728;SDS011;25402;42.004;23.088;2022-10-10T08:13:37;28.08;;;14.35;;
39728;SDS011;25402;42.004;23.088;2022-10-10T08:16:06;23.83;;;13.90;;
39728;SDS011;25402;42.004;23.088;2022-10-10T08:18:34;27.33;;;14.95;;
39728;SDS011;25402;42.004;23.088;2022-10-10T08:21:05;40.83;;;15.85;;
39728;SDS011;25402;42.004;23.088;2022-10-10T08:23:35;29.50;;;14.13;;
39728;SDS011;25402;42.004;23.088;2022-10-10T08:26:04;26.52;;;13.60;;
39728;SDS011;25402;42.004;23.088;2022-10-10T08:28:34;33.67;;;13.88;;
39728;SDS011;25402;42.004;23.088;2022-10-10T08:31:03;21.85;;;13.68;;
39728;SDS011;25402;42.004;23.088;2022-10-10T08:33:36;28.17;;;13.68;;
39728;SDS011;25402;42.004;23.088;2022-10-10T08:36:05;24.60;;;14.15;;
39728;SDS011;25402;42.004;23.088;2022-10-10T08:38:32;21.63;;;13.65;;
39728;SDS011;25402;42.004;23.088;2022-10-10T08:41:00;25.27;;;13.38;;
39728;SDS011;25402;42.004;23.088;2022-10-10T08:43:37;27.05;;;14.27;;
39728;SDS011;25402;42.004;23.088;2022-10-10T08:46:09;24.23;;;14.82;;
39728;SDS011;25402;42.004;23.088;2022-10-10T08:48:41;23.33;;;14.60;;
39728;SDS011;25402;42.004;23.088;2022-10-10T08:51:13;23.10;;;14.40;;
39728;SDS011;25402;42.004;23.088;2022-10-10T08:53:49;20.15;;;13.00;;
39728;SDS011;25402;42.004;23.088;2022-10-10T08:56:22;29.13;;;13.57;;
39728;SDS011;25402;42.004;23.088;2022-10-10T08:58:56;33.25;;;14.20;;
39728;SDS011;25402;42.004;23.088;2022-10-10T09:01:29;28.98;;;16.90;;
39728;SDS011;25402;42.004;23.088;2022-10-10T09:04:01;38.08;;;18.15;;
39728;SDS011;25402;42.004;23.088;2022-10-10T09:06:43;26.55;;;14.82;;
39728;SDS011;25402;42.004;23.088;2022-10-10T09:09:22;32.92;;;19.02;;
39728;SDS011;25402;42.004;23.088;2022-10-10T09:12:02;23.33;;;14.35;;
39728;SDS011;25402;42.004;23.088;2022-10-10T09:14:42;19.17;;;12.93;;
39728;SDS011;25402;42.004;23.088;2022-10-10T09:17:19;27.70;;;15.80;;
39728;SDS011;25402;42.004;23.088;2022-10-10T09:19:58;42.25;;;23.00;;
39728;SDS011;25402;42.004;23.088;2022-10-10T09:22:39;25.27;;;17.42;;
39728;SDS011;25402;42.004;23.088;2022-10-10T09:25:16;19.05;;;12.23;;
39728;SDS011;25402;42.004;23.088;2022-10-10T09:27:46;46.38;;;14.85;;
39728;SDS011;25402;42.004;23.088;2022-10-10T09:30:23;30.20;;;18.73;;
39728;SDS011;25402;42.004;23.088;2022-10-10T09:32:51;17.20;;;11.60;;
39728;SDS011;25402;42.004;23.088;2022-10-10T09:35:25;16.80;;;11.13;;
39728;SDS011;25402;42.004;23.088;2022-10-10T09:37:55;31.42;;;12.35;;
39728;SDS011;25402;42.004;23.088;2022-10-10T09:40:27;31.15;;;16.10;;
39728;SDS011;25402;42.004;23.088;2022-10-10T09:43:00;33.53;;;17.83;;
39728;SDS011;25402;42.004;23.088;2022-10-10T09:45:40;21.45;;;11.90;;
39728;SDS011;25402;42.004;23.088;2022-10-10T09:48:12;24.15;;;9.90;;
39728;SDS011;25402;42.004;23.088;2022-10-10T09:50:41;21.67;;;10.18;;
39728;SDS011;25402;42.004;23.088;2022-10-10T09:53:08;19.58;;;10.23;;
39728;SDS011;25402;42.004;23.088;2022-10-10T09:55:39;23.10;;;10.40;;
39728;SDS011;25402;42.004;23.088;2022-10-10T09:58:11;22.17;;;8.98;;
39728;SDS011;25402;42.004;23.088;2022-10-10T10:00:44;22.83;;;8.35;;
39728;SDS011;25402;42.004;23.088;2022-10-10T10:03:12;23.48;;;9.05;;
39728;SDS011;25402;42.004;23.088;2022-10-10T10:05:42;17.92;;;7.90;;
39728;SDS011;25402;42.004;23.088;2022-10-10T10:08:18;11.57;;;6.93;;
39728;SDS011;25402;42.004;23.088;2022-10-10T10:10:47;19.92;;;7.22;;
39728;SDS011;25402;42.004;23.088;2022-10-10T10:13:16;12.18;;;6.38;;
39728;SDS011;25402;42.004;23.088;2022-10-10T10:15:57;29.65;;;7.57;;
39728;SDS011;25402;42.004;23.088;2022-10-10T10:18:28;16.77;;;7.10;;
39728;SDS011;25402;42.004;23.088;2022-10-10T10:21:17;14.02;;;6.13;;
39728;SDS011;25402;42.004;23.088;2022-10-10T10:23:51;12.63;;;5.35;;
39728;SDS011;25402;42.004;23.088;2022-10-10T10:26:21;23.10;;;5.85;;
39728;SDS011;25402;42.004;23.088;2022-10-10T10:28:51;17.00;;;5.35;;
39728;SDS011;25402;42.004;23.088;2022-10-10T10:31:38;11.88;;;5.03;;
39728;SDS011;25402;42.004;23.088;2022-10-10T10:37:25;27.38;;;6.70;;
39728;SDS011;25402;42.004;23.088;2022-10-10T10:42:53;7.93;;;4.90;;
39728;SDS011;25402;42.004;23.088;2022-10-10T10:45:43;13.40;;;4.90;;
39728;SDS011;25402;42.004;23.088;2022-10-10T10:48:25;20.90;;;4.95;;
39728;SDS011;25402;42.004;23.088;2022-10-10T10:50:54;7.38;;;4.30;;
39728;SDS011;25402;42.004;23.088;2022-10-10T10:53:27;9.35;;;4.60;;
39728;SDS011;25402;42.004;23.088;2022-10-10T10:56:06;11.77;;;4.75;;
39728;SDS011;25402;42.004;23.088;2022-10-10T10:58:52;9.27;;;4.03;;
39728;SDS011;25402;42.004;23.088;2022-10-10T11:01:43;19.48;;;4.20;;
39728;SDS011;25402;42.004;23.088;2022-10-10T11:04:20;27.88;;;5.63;;
39728;SDS011;25402;42.004;23.088;2022-10-10T11:07:02;13.48;;;4.88;;
39728;SDS011;25402;42.004;23.088;2022-10-10T11:09:40;28.25;;;4.70;;
39728;SDS011;25402;42.004;23.088;2022-10-10T11:12:14;10.43;;;4.25;;
39728;SDS011;25402;42.004;23.088;2022-10-10T11:14:55;11.32;;;4.43;;
39728;SDS011;25402;42.004;23.088;2022-10-10T11:17:28;11.57;;;4.45;;
39728;SDS011;25402;42.004;23.088;2022-10-10T11:20:02;22.95;;;4.90;;
39728;SDS011;25402;42.004;23.088;2022-10-10T11:22:40;24.92;;;4.93;;
39728;SDS011;25402;42.004;23.088;2022-10-10T11:25:13;11.00;;;4.82;;
39728;SDS011;25402;42.004;23.088;2022-10-10T11:27:49;13.93;;;5.13;;
39728;SDS011;25402;42.004;23.088;2022-10-10T11:30:23;15.52;;;4.22;;
39728;SDS011;25402;42.004;23.088;2022-10-10T11:32:53;8.18;;;3.97;;
39728;SDS011;25402;42.004;23.088;2022-10-10T11:35:29;21.80;;;4.53;;
39728;SDS011;25402;42.004;23.088;2022-10-10T11:38:03;11.80;;;5.00;;
39728;SDS011;25402;42.004;23.088;2022-10-10T11:40:43;13.82;;;4.15;;
39728;SDS011;25402;42.004;23.088;2022-10-10T11:43:19;9.07;;;4.28;;
39728;SDS011;25402;42.004;23.088;2022-10-10T11:45:53;9.82;;;4.20;;
39728;SDS011;25402;42.004;23.088;2022-10-10T11:48:27;7.32;;;4.90;;
39728;SDS011;25402;42.004;23.088;2022-10-10T11:51:05;18.67;;;4.75;;
39728;SDS011;25402;42.004;23.088;2022-10-10T11:53:43;14.30;;;4.22;;
39728;SDS011;25402;42.004;23.088;2022-10-10T11:56:14;9.13;;;3.78;;
39728;SDS011;25402;42.004;23.088;2022-10-10T11:58:50;11.45;;;4.80;;
39728;SDS011;25402;42.004;23.088;2022-10-10T12:01:24;9.38;;;6.07;;
39728;SDS011;25402;42.004;23.088;2022-10-10T12:03:54;19.85;;;11.02;;
39728;SDS011;25402;42.004;23.088;2022-10-10T12:06:24;28.02;;;14.23;;
39728;SDS011;25402;42.004;23.088;2022-10-10T12:08:58;26.70;;;15.88;;
39728;SDS011;25402;42.004;23.088;2022-10-10T12:11:32;29.17;;;9.88;;
39728;SDS011;25402;42.004;23.088;2022-10-10T12:14:03;14.90;;;6.97;;
39728;SDS011;25402;42.004;23.088;2022-10-10T12:16:34;6.28;;;4.90;;
39728;SDS011;25402;42.004;23.088;2022-10-10T12:19:04;7.35;;;4.40;;
39728;SDS011;25402;42.004;23.088;2022-10-10T12:24:21;15.30;;;4.05;;
39728;SDS011;25402;42.004;23.088;2022-10-10T12:32:42;12.45;;;4.03;;
39728;SDS011;25402;42.004;23.088;2022-10-10T12:38:09;20.35;;;5.18;;
39728;SDS011;25402;42.004;23.088;2022-10-10T12:43:43;6.90;;;4.20;;
39728;SDS011;25402;42.004;23.088;2022-10-10T12:46:18;5.93;;;4.03;;
39728;SDS011;25402;42.004;23.088;2022-10-10T12:48:58;17.15;;;4.65;;
39728;SDS011;25402;42.004;23.088;2022-10-10T12:51:27;10.00;;;4.40;;
39728;SDS011;25402;42.004;23.088;2022-10-10T12:53:57;11.20;;;5.28;;
39728;SDS011;25402;42.004;23.088;2022-10-10T12:56:32;19.23;;;4.95;;
39728;SDS011;25402;42.004;23.088;2022-10-10T12:59:02;27.67;;;7.30;;
39728;SDS011;25402;42.004;23.088;2022-10-10T13:01:32;13.15;;;5.25;;
39728;SDS011;25402;42.004;23.088;2022-10-10T13:04:00;37.08;;;6.35;;
39728;SDS011;25402;42.004;23.088;2022-10-10T13:06:29;21.50;;;5.18;;
39728;SDS011;25402;42.004;23.088;2022-10-10T13:11:48;14.98;;;5.40;;
39728;SDS011;25402;42.004;23.088;2022-10-10T13:14:16;13.52;;;5.07;;
39728;SDS011;25402;42.004;23.088;2022-10-10T13:16:43;18.23;;;5.75;;
39728;SDS011;25402;42.004;23.088;2022-10-10T13:19:15;14.77;;;4.57;;
39728;SDS011;25402;42.004;23.088;2022-10-10T13:21:45;6.82;;;4.00;;
39728;SDS011;25402;42.004;23.088;2022-10-10T13:24:17;50.28;;;5.85;;
39728;SDS011;25402;42.004;23.088;2022-10-10T13:26:46;7.30;;;4.60;;
39728;SDS011;25402;42.004;23.088;2022-10-10T13:29:20;39.33;;;5.78;;
39728;SDS011;25402;42.004;23.088;2022-10-10T13:31:51;9.88;;;4.70;;
39728;SDS011;25402;42.004;23.088;2022-10-10T13:34:21;16.80;;;5.25;;
39728;SDS011;25402;42.004;23.088;2022-10-10T13:36:59;43.60;;;5.70;;
39728;SDS011;25402;42.004;23.088;2022-10-10T13:39:30;21.67;;;5.20;;
39728;SDS011;25402;42.004;23.088;2022-10-10T13:41:59;12.20;;;4.50;;
39728;SDS011;25402;42.004;23.088;2022-10-10T13:44:29;11.50;;;4.28;;
39728;SDS011;25402;42.004;23.088;2022-10-10T13:46:58;9.60;;;4.13;;
39728;SDS011;25402;42.004;23.088;2022-10-10T13:49:53;19.98;;;5.22;;
39728;SDS011;25402;42.004;23.088;2022-10-10T13:52:22;25.27;;;5.22;;
39728;SDS011;25402;42.004;23.088;2022-10-10T13:54:51;21.10;;;5.30;;
39728;SDS011;25402;42.004;23.088;2022-10-10T13:57:19;6.80;;;4.43;;
39728;SDS011;25402;42.004;23.088;2022-10-10T13:59:49;30.33;;;5.35;;
39728;SDS011;25402;42.004;23.088;2022-10-10T14:02:28;20.05;;;5.88;;
39728;SDS011;25402;42.004;23.088;2022-10-10T14:04:57;21.98;;;6.05;;
39728;SDS011;25402;42.004;23.088;2022-10-10T14:07:29;42.47;;;10.55;;
39728;SDS011;25402;42.004;23.088;2022-10-10T14:10:00;22.73;;;7.97;;
39728;SDS011;25402;42.004;23.088;2022-10-10T14:12:33;20.88;;;5.38;;
39728;SDS011;25402;42.004;23.088;2022-10-10T14:17:56;23.83;;;5.45;;
39728;SDS011;25402;42.004;23.088;2022-10-10T14:20:23;15.75;;;5.07;;
39728;SDS011;25402;42.004;23.088;2022-10-10T14:22:50;11.13;;;4.88;;
39728;SDS011;25402;42.004;23.088;2022-10-10T14:25:19;15.23;;;4.50;;
39728;SDS011;25402;42.004;23.088;2022-10-10T14:27:46;9.98;;;4.53;;
39728;SDS011;25402;42.004;23.088;2022-10-10T14:30:13;7.45;;;4.28;;
39728;SDS011;25402;42.004;23.088;2022-10-10T14:32:40;4.90;;;3.97;;
39728;SDS011;25402;42.004;23.088;2022-10-10T14:35:08;7.60;;;4.60;;
39728;SDS011;25402;42.004;23.088;2022-10-10T14:37:37;10.30;;;4.63;;
39728;SDS011;25402;42.004;23.088;2022-10-10T14:40:09;7.90;;;4.20;;
39728;SDS011;25402;42.004;23.088;2022-10-10T14:42:44;5.93;;;4.30;;
39728;SDS011;25402;42.004;23.088;2022-10-10T14:45:11;8.00;;;4.15;;
39728;SDS011;25402;42.004;23.088;2022-10-10T14:47:39;10.23;;;4.85;;
39728;SDS011;25402;42.004;23.088;2022-10-10T14:50:11;8.02;;;4.18;;
39728;SDS011;25402;42.004;23.088;2022-10-10T14:52:40;10.95;;;4.78;;
39728;SDS011;25402;42.004;23.088;2022-10-10T14:55:08;6.05;;;4.10;;
39728;SDS011;25402;42.004;23.088;2022-10-10T14:57:36;9.38;;;3.92;;
39728;SDS011;25402;42.004;23.088;2022-10-10T15:00:05;10.25;;;4.75;;
39728;SDS011;25402;42.004;23.088;2022-10-10T15:02:37;11.02;;;4.70;;
39728;SDS011;25402;42.004;23.088;2022-10-10T15:05:04;10.15;;;4.25;;
39728;SDS011;25402;42.004;23.088;2022-10-10T15:07:31;10.20;;;4.07;;
39728;SDS011;25402;42.004;23.088;2022-10-10T15:09:58;8.30;;;4.07;;